Time;durP1;ratioP1;P1;durP2;ratioP2;P2;SDS_P1;SDS_P2;PMS_P1;PMS_P2;Temp;Humidity;BMP_temperature;BMP_pressure;BME280_temperature;BME280_humidity;BME280_pressure;Samples;Min_cycle;Max_cycle;Signal;HPM_P1;HPM_P2
2023/05/31 00:01:55;;;;;;;5.90;3.30;;;;;;;12.03;55.46;101244.77;221235;1235;61251;-73
2023/05/31 00:06:46;;;;;;;9.40;3.70;;;;;;;11.90;55.72;101244.84;221237;1236;61244;-73
2023/05/31 00:11:38;;;;;;;8.10;4.00;;;;;;;11.79;55.86;101246.69;221238;1235;61966;-73
2023/05/31 00:16:30;;;;;;;5.60;3.50;;;;;;;11.70;56.27;101247.90;221112;1239;73566;-74
2023/05/31 00:21:44;;;;;;;5.00;2.90;;;;;;;11.57;56.38;101251.61;221201;1237;73280;-73
2023/05/31 00:26:36;;;;;;;6.10;3.70;;;;;;;11.46;56.47;101256.05;221178;1237;61172;-74
2023/05/31 00:31:27;;;;;;;5.50;3.40;;;;;;;11.40;56.75;101252.30;220892;1237;61368;-74
2023/05/31 00:36:19;;;;;;;3.80;2.80;;;;;;;11.37;56.78;101249.10;221188;1235;61916;-74
2023/05/31 00:41:11;;;;;;;4.10;3.00;;;;;;;11.33;56.80;101250.73;220933;1239;67366;-73
2023/05/31 00:46:03;;;;;;;3.60;2.50;;;;;;;11.24;56.77;101244.30;220947;1239;61262;-73
2023/05/31 00:50:54;;;;;;;4.40;2.80;;;;;;;11.13;56.88;101246.13;221200;1239;61340;-74
2023/05/31 00:55:46;;;;;;;5.30;2.80;;;;;;;10.99;57.09;101250.85;221150;1235;61613;-74
2023/05/31 01:00:37;;;;;;;6.40;2.80;;;;;;;10.84;57.05;101249.42;221113;1235;75892;-74
2023/05/31 01:05:29;;;;;;;5.40;3.40;;;;;;;10.68;57.39;101251.30;221109;1235;62134;-73
2023/05/31 01:10:21;;;;;;;3.40;2.40;;;;;;;10.59;57.40;101254.19;220959;1239;61288;-73
2023/05/31 01:15:20;;;;;;;6.80;2.90;;;;;;;10.49;57.32;101260.88;221131;1235;72499;-73
2023/05/31 01:20:17;;;;;;;4.20;3.00;;;;;;;10.39;57.69;101267.70;221153;1234;61254;-73
2023/05/31 01:25:43;;;;;;;4.10;3.20;;;;;;;10.18;57.71;101271.63;221120;1237;64982;-73
2023/05/31 01:30:37;;;;;;;7.30;4.40;;;;;;;9.92;58.17;101286.16;220925;1239;61262;-74
2023/05/31 01:35:29;;;;;;;5.60;3.10;;;;;;;9.83;58.44;101288.98;220777;1235;75559;-73
2023/05/31 01:40:20;;;;;;;4.10;3.00;;;;;;;9.65;58.38;101289.17;220928;1239;61368;-74
2023/05/31 01:45:14;;;;;;;3.20;2.60;;;;;;;9.53;58.72;101286.38;221204;1235;61235;-74
2023/05/31 01:50:06;;;;;;;5.50;3.10;;;;;;;9.52;58.94;101291.05;221119;1236;72572;-73
2023/05/31 01:54:58;;;;;;;3.70;2.50;;;;;;;9.46;59.22;101289.11;221198;1235;61332;-73
2023/05/31 01:59:51;;;;;;;5.10;2.70;;;;;;;9.41;59.33;101289.48;221217;1239;61297;-73
2023/05/31 02:04:43;;;;;;;5.40;2.70;;;;;;;9.38;59.43;101289.20;221017;1236;61351;-74
2023/05/31 02:09:34;;;;;;;4.60;3.10;;;;;;;9.31;59.43;101294.54;221136;1239;61884;-73
2023/05/31 02:14:29;;;;;;;4.50;3.00;;;;;;;9.27;59.70;101301.51;221118;1236;61397;-73
2023/05/31 02:19:25;;;;;;;4.50;2.90;;;;;;;9.21;59.80;101299.75;220946;1235;61345;-74
2023/05/31 02:24:16;;;;;;;3.30;2.80;;;;;;;9.15;59.95;101304.06;221182;1239;72762;-73
2023/05/31 02:29:09;;;;;;;6.60;3.00;;;;;;;9.12;60.14;101305.54;221130;1237;61370;-73
2023/05/31 02:34:00;;;;;;;4.00;2.90;;;;;;;9.03;59.96;101307.66;221105;1239;61732;-73
2023/05/31 02:38:52;;;;;;;6.70;3.50;;;;;;;8.96;60.21;101312.98;221175;1236;61357;-73
2023/05/31 02:43:43;;;;;;;5.00;3.60;;;;;;;8.92;60.34;101315.21;221135;1235;61267;-73
2023/05/31 02:48:36;;;;;;;6.40;2.70;;;;;;;8.88;60.63;101313.18;221133;1239;61348;-73
2023/05/31 02:53:30;;;;;;;3.50;3.00;;;;;;;8.77;60.60;101315.09;221112;1239;61911;-73
2023/05/31 02:58:30;;;;;;;5.30;2.70;;;;;;;8.70;61.02;101316.27;220938;1239;61378;-73
2023/05/31 03:03:56;;;;;;;4.20;2.80;;;;;;;8.71;61.01;101321.10;220489;1236;73168;-74
2023/05/31 03:08:52;;;;;;;4.70;2.60;;;;;;;8.73;61.30;101327.58;221087;1239;73280;-73
2023/05/31 03:13:44;;;;;;;4.80;2.80;;;;;;;8.79;61.22;101329.84;221102;1234;61246;-73
2023/05/31 03:18:35;;;;;;;4.10;2.50;;;;;;;8.87;61.26;101331.13;221161;1235;61278;-74
2023/05/31 03:23:29;;;;;;;7.50;2.60;;;;;;;9.37;61.26;101330.36;220864;1239;61882;-73
2023/05/31 03:28:20;;;;;;;6.10;3.50;;;;;;;10.37;60.80;101328.95;221180;1236;61295;-74
2023/05/31 03:33:12;;;;;;;5.20;3.40;;;;;;;11.68;59.13;101329.81;221127;1239;61252;-74
2023/05/31 03:38:04;;;;;;;3.80;2.60;;;;;;;11.83;58.22;101324.23;221118;1236;61259;-74
2023/05/31 03:42:57;;;;;;;5.80;3.30;;;;;;;11.57;57.80;101318.48;221053;1239;61370;-73
2023/05/31 03:47:49;;;;;;;6.10;2.40;;;;;;;11.49;57.66;101322.64;220993;1235;61288;-73
2023/05/31 03:52:40;;;;;;;4.60;2.60;;;;;;;11.45;57.58;101321.30;220864;1239;72512;-74
2023/05/31 03:57:32;;;;;;;4.10;2.50;;;;;;;11.13;57.78;101317.27;220936;1234;61242;-74
2023/05/31 04:02:23;;;;;;;6.20;3.00;;;;;;;10.93;58.35;101315.73;221125;1235;61240;-74
2023/05/31 04:07:16;;;;;;;6.00;2.40;;;;;;;10.77;58.93;101324.16;221097;1235;61260;-74
2023/05/31 04:12:08;;;;;;;10.60;3.10;;;;;;;10.65;59.05;101320.75;220938;1238;61460;-74
2023/05/31 04:17:00;;;;;;;3.40;2.30;;;;;;;10.60;59.36;101319.91;220943;1239;61263;-73
2023/05/31 04:21:51;;;;;;;2.70;1.90;;;;;;;10.59;59.65;101320.92;221102;1235;68440;-73
2023/05/31 04:26:43;;;;;;;4.40;2.00;;;;;;;10.62;59.78;101318.58;220981;1239;61256;-73
2023/05/31 04:31:36;;;;;;;6.20;1.90;;;;;;;10.67;59.53;101323.22;220839;1235;61246;-73
2023/05/31 04:36:44;;;;;;;3.30;1.80;;;;;;;10.78;59.83;101325.59;220981;1235;61341;-73
2023/05/31 04:41:36;;;;;;;4.00;2.80;;;;;;;10.84;59.88;101327.48;220588;1236;61256;-73
2023/05/31 04:46:28;;;;;;;5.60;2.10;;;;;;;10.92;59.52;101328.19;220488;1239;61282;-74
2023/05/31 04:51:20;;;;;;;3.20;1.90;;;;;;;11.03;59.57;101325.18;220749;1235;61296;-73
2023/05/31 04:56:12;;;;;;;6.80;1.90;;;;;;;11.10;59.62;101322.75;220627;1239;70433;-73
2023/05/31 05:01:04;;;;;;;4.20;2.00;;;;;;;11.19;59.35;101319.85;220669;1235;61374;-73
2023/05/31 05:06:16;;;;;;;5.30;1.90;;;;;;;11.27;59.26;101318.80;220552;1240;68965;-74
2023/05/31 05:11:07;;;;;;;2.90;1.80;;;;;;;11.38;59.19;101323.24;220708;1239;61259;-73
2023/05/31 05:15:59;;;;;;;4.10;1.70;;;;;;;11.50;58.95;101320.03;220682;1234;61249;-73
2023/05/31 05:20:51;;;;;;;2.90;1.80;;;;;;;11.64;58.64;101312.04;220893;1239;61290;-73
2023/05/31 05:25:45;;;;;;;4.90;2.10;;;;;;;11.78;58.73;101306.09;220887;1240;74380;-73
2023/05/31 05:30:38;;;;;;;4.90;1.80;;;;;;;11.90;58.18;101309.98;220871;1238;61330;-73
2023/05/31 05:35:30;;;;;;;4.50;1.70;;;;;;;12.02;57.96;101310.59;220724;1240;61319;-73
2023/05/31 05:40:22;;;;;;;4.10;2.20;;;;;;;12.12;57.77;101315.86;220711;1235;61434;-73
2023/05/31 05:45:14;;;;;;;5.00;1.90;;;;;;;12.29;57.91;101314.77;220853;1240;61254;-73
2023/05/31 05:50:07;;;;;;;2.40;1.30;;;;;;;12.45;57.34;101314.41;220867;1235;65436;-73
2023/05/31 05:54:59;;;;;;;4.80;1.80;;;;;;;12.62;56.87;101312.27;220834;1235;61260;-73
2023/05/31 05:59:52;;;;;;;3.00;1.60;;;;;;;12.73;56.24;101311.27;220929;1235;61192;-73
2023/05/31 06:04:45;;;;;;;3.90;2.70;;;;;;;12.96;55.35;101316.17;220836;1235;61272;-73
2023/05/31 06:09:37;;;;;;;3.00;1.50;;;;;;;13.11;54.31;101317.11;220816;1235;61241;-73
2023/05/31 06:14:28;;;;;;;2.50;1.10;;;;;;;13.31;53.83;101315.34;220774;1238;62171;-73
2023/05/31 06:19:20;;;;;;;2.40;1.40;;;;;;;13.47;53.34;101308.82;220742;1238;75495;-73
2023/05/31 06:24:12;;;;;;;3.00;1.50;;;;;;;13.76;53.21;101309.40;220600;1240;61348;-73
2023/05/31 06:29:03;;;;;;;4.20;1.60;;;;;;;14.04;52.81;101309.92;220566;1240;61337;-73
2023/05/31 06:34:18;;;;;;;2.50;1.40;;;;;;;14.43;51.31;101304.25;220748;1240;74385;-73
2023/05/31 06:39:09;;;;;;;2.00;1.20;;;;;;;14.59;50.81;101300.59;220837;1239;61360;-74
2023/05/31 06:44:01;;;;;;;1.30;1.10;;;;;;;14.96;50.19;101293.27;220783;1240;61512;-73
2023/05/31 06:49:04;;;;;;;1.10;0.90;;;;;;;15.47;48.87;101287.34;220662;1235;61293;-75
2023/05/31 06:54:35;;;;;;;3.00;1.60;;;;;;;15.97;47.53;101286.39;220462;1239;66167;-75
2023/05/31 06:59:27;;;;;;;2.80;1.30;;;;;;;16.31;46.84;101288.23;220778;1235;61187;-73
2023/05/31 07:04:19;;;;;;;2.10;1.70;;;;;;;16.42;45.80;101282.48;220731;1239;61265;-73
2023/05/31 07:09:12;;;;;;;3.10;2.30;;;;;;;16.40;45.13;101277.58;220871;1239;61198;-73
2023/05/31 07:14:15;;;;;;;2.00;1.50;;;;;;;16.59;44.62;101276.39;220784;1239;61261;-74
2023/05/31 07:19:06;;;;;;;3.00;1.80;;;;;;;16.66;43.94;101272.02;220803;1239;61252;-73
2023/05/31 07:23:58;;;;;;;3.10;1.20;;;;;;;17.24;42.42;101268.68;220982;1235;61270;-74
2023/05/31 07:28:52;;;;;;;2.30;1.40;;;;;;;18.16;40.42;101261.89;220901;1235;61253;-73
2023/05/31 07:33:44;;;;;;;1.40;1.10;;;;;;;19.80;38.54;101254.98;220932;1235;61377;-73
2023/05/31 07:38:36;;;;;;;3.50;1.60;;;;;;;23.62;34.45;101245.05;220875;1239;61246;-74
2023/05/31 07:43:29;;;;;;;2.60;1.70;;;;;;;26.98;31.28;101233.63;220909;1239;61248;-73
2023/05/31 07:49:21;;;;;;;;;;;;;;;;;;;;;
2023/05/31 07:54:20;;;;;;;2.20;1.30;;;;;;;30.72;25.64;101225.61;220906;1235;70876;-75
2023/05/31 07:59:11;;;;;;;2.70;1.40;;;;;;;28.84;25.05;101225.64;221031;1235;61261;-74
2023/05/31 08:04:07;;;;;;;1.70;1.20;;;;;;;27.43;25.68;101224.15;220980;1235;61377;-73
2023/05/31 08:09:00;;;;;;;3.60;1.50;;;;;;;25.89;26.31;101222.61;220924;1236;61358;-75
2023/05/31 08:13:52;;;;;;;2.90;1.80;;;;;;;27.18;25.26;101206.09;220877;1235;67255;-74
2023/05/31 08:18:44;;;;;;;3.80;1.60;;;;;;;29.94;23.88;101203.98;220900;1239;61431;-74
2023/05/31 08:23:36;;;;;;;3.80;1.40;;;;;;;32.33;22.14;101205.52;220911;1240;61351;-75
2023/05/31 08:28:29;;;;;;;2.10;1.40;;;;;;;32.13;21.61;101208.58;220893;1235;61258;-75
2023/05/31 08:33:21;;;;;;;1.60;1.40;;;;;;;30.23;21.78;101204.69;220839;1235;74838;-75
2023/05/31 08:38:13;;;;;;;1.50;1.30;;;;;;;30.97;20.90;101199.21;220840;1239;61701;-74
2023/05/31 08:43:15;;;;;;;1.40;1.30;;;;;;;32.92;19.62;101199.73;220805;1235;61227;-74
2023/05/31 08:48:10;;;;;;;2.20;1.40;;;;;;;34.18;18.26;101193.80;221108;1235;73592;-75
2023/05/31 08:53:03;;;;;;;3.90;1.20;;;;;;;33.69;18.22;101189.11;220867;1236;61687;-74
2023/05/31 08:57:56;;;;;;;3.10;1.00;;;;;;;30.03;20.31;101190.73;220896;1235;61428;-75
2023/05/31 09:02:50;;;;;;;2.90;1.60;;;;;;;27.68;21.49;101197.76;220845;1239;61248;-75
2023/05/31 09:07:42;;;;;;;1.40;1.30;;;;;;;26.55;22.26;101197.77;221062;1235;75585;-74
2023/05/31 09:12:35;;;;;;;4.30;1.40;;;;;;;25.28;22.65;101196.84;220908;1235;61271;-74
2023/05/31 09:17:27;;;;;;;3.60;1.80;;;;;;;24.58;23.54;101195.73;220804;1239;61566;-74
2023/05/31 09:22:19;;;;;;;2.50;1.40;;;;;;;26.17;22.60;101192.20;220882;1235;61171;-74
2023/05/31 09:27:11;;;;;;;1.90;1.70;;;;;;;27.42;21.83;101183.45;221168;1235;61245;-74
2023/05/31 09:32:10;;;;;;;4.40;1.70;;;;;;;28.65;20.62;101186.65;220809;1235;61331;-75
2023/05/31 09:37:03;;;;;;;1.70;1.60;;;;;;;30.27;18.89;101183.38;220961;1235;61562;-74
2023/05/31 09:41:57;;;;;;;2.40;1.40;;;;;;;32.29;17.92;101175.15;220715;1239;74383;-74
2023/05/31 09:46:48;;;;;;;3.00;1.70;;;;;;;33.73;17.17;101170.52;220821;1235;72501;-75
2023/05/31 09:51:40;;;;;;;3.30;1.40;;;;;;;34.62;16.77;101175.39;220769;1239;61296;-75
2023/05/31 09:56:36;;;;;;;2.90;1.30;;;;;;;35.09;16.41;101174.27;220864;1239;61249;-75
2023/05/31 10:01:29;;;;;;;2.90;1.70;;;;;;;35.39;15.56;101170.48;220849;1239;61373;-75
2023/05/31 10:06:23;;;;;;;4.00;1.80;;;;;;;35.56;14.70;101162.17;220837;1238;66737;-75
2023/05/31 10:11:18;;;;;;;2.20;1.50;;;;;;;35.68;14.68;101154.58;220954;1235;61269;-75
2023/05/31 10:16:11;;;;;;;1.50;1.30;;;;;;;36.04;15.64;101153.95;220876;1235;75399;-75
2023/05/31 10:21:10;;;;;;;3.00;1.50;;;;;;;35.92;14.87;101152.59;221126;1238;72655;-74
2023/05/31 10:26:17;;;;;;;2.10;1.70;;;;;;;35.96;14.76;101144.80;220845;1236;61253;-73
2023/05/31 10:31:11;;;;;;;2.90;1.30;;;;;;;35.64;15.36;101151.64;220857;1239;65996;-75
2023/05/31 10:36:03;;;;;;;1.30;1.20;;;;;;;35.16;15.03;101151.00;220808;1235;61756;-75
2023/05/31 10:41:13;;;;;;;3.30;1.80;;;;;;;35.05;15.93;101149.15;220555;1235;174029;-74
2023/05/31 10:46:23;;;;;;;1.30;1.10;;;;;;;34.73;15.45;101146.63;220842;1235;71367;-74
2023/05/31 10:51:16;;;;;;;1.40;1.30;;;;;;;34.44;15.59;101148.48;220827;1235;61371;-74
2023/05/31 10:56:11;;;;;;;1.90;1.60;;;;;;;33.85;16.25;101146.24;220836;1235;66963;-74
2023/05/31 11:01:08;;;;;;;1.70;1.40;;;;;;;33.15;15.29;101146.82;220868;1235;61236;-74
2023/05/31 11:06:08;;;;;;;1.30;1.20;;;;;;;31.29;16.58;101142.32;220817;1235;75025;-74
2023/05/31 11:11:28;;;;;;;1.70;1.50;;;;;;;29.56;17.61;101150.60;220740;1239;73577;-74
2023/05/31 11:16:20;;;;;;;2.00;1.20;;;;;;;28.64;18.38;101138.73;220828;1239;61256;-74
2023/05/31 11:21:48;;;;;;;1.40;1.20;;;;;;;28.01;19.24;101129.27;220761;1236;61355;-74
2023/05/31 11:26:52;;;;;;;1.80;1.30;;;;;;;27.74;20.51;101121.10;221095;1235;61381;-74
2023/05/31 11:31:50;;;;;;;2.10;1.90;;;;;;;27.62;20.18;101115.08;220863;1235;74605;-74
2023/05/31 11:36:46;;;;;;;1.70;1.30;;;;;;;27.32;20.77;101117.41;220836;1236;72932;-73
2023/05/31 11:41:38;;;;;;;3.80;1.50;;;;;;;27.34;20.87;101108.77;220819;1239;61143;-73
2023/05/31 11:46:30;;;;;;;1.40;1.20;;;;;;;27.13;19.65;101102.43;220721;1235;61275;-74
2023/05/31 11:51:22;;;;;;;3.10;1.50;;;;;;;26.95;20.06;101099.34;220799;1235;62036;-74
2023/05/31 11:56:15;;;;;;;3.10;1.70;;;;;;;27.29;21.19;101090.14;220404;1235;61384;-73
2023/05/31 12:01:08;;;;;;;3.60;1.50;;;;;;;27.22;20.15;101077.28;220594;1235;61345;-73
2023/05/31 12:06:04;;;;;;;4.30;1.70;;;;;;;27.00;20.19;101066.36;220620;1235;74510;-73
2023/05/31 12:11:02;;;;;;;2.40;1.40;;;;;;;26.63;21.21;101071.61;220646;1239;72568;-73
2023/05/31 12:15:55;;;;;;;1.80;1.50;;;;;;;26.63;20.58;101067.32;220658;1235;61330;-74
2023/05/31 12:20:47;;;;;;;2.70;1.30;;;;;;;26.46;19.83;101062.71;220644;1239;66212;-74
2023/05/31 12:25:46;;;;;;;2.60;1.50;;;;;;;26.20;20.48;101063.67;220773;1235;61154;-72
2023/05/31 12:30:43;;;;;;;4.70;1.70;;;;;;;26.57;21.46;101058.67;220739;1239;73299;-72
2023/05/31 12:35:47;;;;;;;4.60;1.60;;;;;;;26.96;21.38;101045.95;220572;1235;72194;-73
2023/05/31 12:40:41;;;;;;;1.60;1.50;;;;;;;27.13;21.61;101040.86;220687;1235;61242;-73
2023/05/31 12:45:39;;;;;;;1.90;1.70;;;;;;;27.39;21.09;101038.21;220653;1239;66918;-73
2023/05/31 12:50:31;;;;;;;3.20;1.80;;;;;;;27.51;20.88;101032.86;220647;1239;61273;-73
2023/05/31 12:55:22;;;;;;;2.40;1.50;;;;;;;27.20;20.46;101020.98;220544;1234;61735;-73
2023/05/31 13:00:14;;;;;;;2.90;1.60;;;;;;;27.18;20.06;101011.63;220807;1239;61321;-73
2023/05/31 13:05:06;;;;;;;3.20;1.60;;;;;;;27.15;20.02;101004.48;220642;1239;74481;-75
2023/05/31 13:09:58;;;;;;;2.50;2.20;;;;;;;27.25;20.59;101007.75;220690;1239;61387;-73
2023/05/31 13:14:53;;;;;;;3.20;1.70;;;;;;;27.37;20.39;101004.13;220697;1235;61301;-73
2023/05/31 13:19:45;;;;;;;2.40;1.70;;;;;;;27.43;19.82;100996.95;220730;1234;65744;-73
2023/05/31 13:24:52;;;;;;;2.00;1.60;;;;;;;27.38;20.15;100995.93;220634;1237;61227;-74
2023/05/31 13:29:44;;;;;;;1.50;1.40;;;;;;;27.32;19.83;100988.54;220696;1235;61418;-73
2023/05/31 13:34:35;;;;;;;2.00;1.80;;;;;;;27.36;20.74;100976.80;220759;1235;61245;-73
2023/05/31 13:39:27;;;;;;;3.50;2.00;;;;;;;27.27;20.01;100976.49;220806;1235;75946;-73
2023/05/31 13:44:19;;;;;;;2.20;1.70;;;;;;;27.03;19.76;100963.06;220775;1235;61326;-73
2023/05/31 13:49:15;;;;;;;2.70;1.50;;;;;;;26.84;20.15;100953.81;220758;1239;61256;-73
2023/05/31 13:54:06;;;;;;;2.80;1.60;;;;;;;26.94;20.61;100949.81;220807;1235;66987;-72
2023/05/31 13:58:58;;;;;;;1.80;1.70;;;;;;;27.07;20.55;100943.82;220752;1239;61341;-72
2023/05/31 14:03:51;;;;;;;3.70;1.70;;;;;;;27.11;19.57;100934.42;220784;1235;61305;-72
2023/05/31 14:08:45;;;;;;;4.50;1.60;;;;;;;27.12;19.84;100929.53;220819;1235;61252;-73
2023/05/31 14:13:38;;;;;;;4.50;1.50;;;;;;;27.15;19.58;100926.72;220775;1239;61229;-74
2023/05/31 14:18:30;;;;;;;1.90;1.80;;;;;;;27.08;19.93;100920.48;220870;1235;61358;-73
2023/05/31 14:23:22;;;;;;;2.60;1.50;;;;;;;27.11;19.58;100913.96;220940;1235;61907;-73
2023/05/31 14:28:13;;;;;;;3.30;1.60;;;;;;;27.15;18.78;100911.44;220919;1239;65650;-74
2023/05/31 14:33:05;;;;;;;3.50;1.50;;;;;;;27.01;19.88;100904.80;221058;1235;61271;-74
2023/05/31 14:37:57;;;;;;;5.90;2.10;;;;;;;26.94;19.68;100901.77;220874;1239;61693;-74
2023/05/31 14:43:08;;;;;;;2.20;1.60;;;;;;;26.97;20.06;100889.01;220866;1239;61269;-74
2023/05/31 14:48:00;;;;;;;2.60;1.70;;;;;;;26.88;20.09;100889.96;220955;1239;61260;-74
2023/05/31 14:52:52;;;;;;;3.50;1.90;;;;;;;26.70;18.88;100887.48;221081;1235;61252;-73
2023/05/31 14:57:43;;;;;;;2.50;1.70;;;;;;;26.75;19.39;100883.33;221013;1235;74447;-73
2023/05/31 15:02:35;;;;;;;2.00;1.60;;;;;;;26.64;19.30;100872.45;220992;1239;61285;-74
2023/05/31 15:07:27;;;;;;;2.30;1.60;;;;;;;26.52;20.32;100870.84;221025;1237;61371;-74
2023/05/31 15:12:18;;;;;;;5.50;1.90;;;;;;;26.41;20.37;100868.89;221001;1239;71236;-74
2023/05/31 15:17:10;;;;;;;4.60;2.20;;;;;;;26.23;20.10;100857.80;220997;1236;61362;-74
2023/05/31 15:22:02;;;;;;;3.50;2.20;;;;;;;26.17;20.04;100860.74;220989;1239;61290;-73
2023/05/31 15:26:54;;;;;;;4.40;2.00;;;;;;;26.20;20.51;100854.02;220841;1239;61217;-73
2023/05/31 15:31:46;;;;;;;2.80;1.30;;;;;;;26.18;20.81;100853.05;220920;1236;61323;-74
2023/05/31 15:36:38;;;;;;;3.50;1.60;;;;;;;26.14;20.73;100845.78;220807;1235;61325;-73
2023/05/31 15:41:30;;;;;;;2.40;1.60;;;;;;;26.14;21.24;100841.34;220984;1235;61387;-73
2023/05/31 15:46:21;;;;;;;2.90;1.60;;;;;;;25.94;20.62;100846.15;221020;1235;61226;-73
2023/05/31 15:51:13;;;;;;;6.00;1.60;;;;;;;25.48;20.61;100841.23;221066;1235;61557;-73
2023/05/31 15:56:06;;;;;;;2.40;1.60;;;;;;;25.17;20.98;100843.77;220997;1235;61889;-74
2023/05/31 16:00:59;;;;;;;1.90;1.70;;;;;;;25.10;21.55;100835.73;220987;1234;61303;-73
2023/05/31 16:05:52;;;;;;;2.20;1.60;;;;;;;25.17;21.65;100829.60;220810;1239;72482;-74
2023/05/31 16:10:44;;;;;;;3.30;1.50;;;;;;;25.17;21.61;100821.06;220645;1236;61306;-73
2023/05/31 16:15:35;;;;;;;1.80;1.60;;;;;;;25.08;21.82;100821.96;220737;1235;61321;-73
2023/05/31 16:20:27;;;;;;;2.10;1.90;;;;;;;25.06;21.53;100819.73;221011;1235;61237;-73
2023/05/31 16:25:18;;;;;;;1.90;1.40;;;;;;;25.01;21.17;100820.48;220753;1237;67010;-73
2023/05/31 16:30:10;;;;;;;3.40;1.80;;;;;;;24.85;21.23;100813.89;220915;1239;61350;-73
2023/05/31 16:35:03;;;;;;;1.90;1.60;;;;;;;24.81;21.54;100809.27;220945;1239;61227;-73
2023/05/31 16:39:54;;;;;;;1.70;1.30;;;;;;;24.66;20.90;100799.23;220986;1238;61383;-73
2023/05/31 16:44:48;;;;;;;3.20;1.60;;;;;;;24.51;20.87;100798.02;220986;1237;61356;-73
2023/05/31 16:49:40;;;;;;;1.60;1.50;;;;;;;24.39;20.77;100794.58;221033;1239;61258;-73
2023/05/31 16:54:31;;;;;;;1.90;1.70;;;;;;;24.21;21.02;100794.58;221083;1239;61240;-73
2023/05/31 16:59:23;;;;;;;1.60;1.40;;;;;;;24.14;20.58;100797.33;221053;1237;72736;-73
2023/05/31 17:04:15;;;;;;;1.90;1.50;;;;;;;24.06;20.92;100792.31;220801;1235;61278;-73
2023/05/31 17:09:07;;;;;;;3.10;1.60;;;;;;;23.90;21.06;100786.88;220908;1239;61329;-73
2023/05/31 17:13:58;;;;;;;2.90;1.80;;;;;;;23.68;21.11;100783.95;221029;1235;61259;-73
2023/05/31 17:18:51;;;;;;;2.70;1.40;;;;;;;23.41;21.71;100779.44;221137;1235;66561;-73
2023/05/31 17:23:43;;;;;;;3.00;1.70;;;;;;;23.26;21.65;100774.86;221095;1235;61271;-73
2023/05/31 17:28:35;;;;;;;2.80;1.50;;;;;;;23.15;22.62;100771.31;221136;1235;61227;-73
2023/05/31 17:33:26;;;;;;;3.50;1.70;;;;;;;23.01;22.98;100770.01;221161;1239;61343;-73
2023/05/31 17:38:18;;;;;;;5.30;1.80;;;;;;;22.81;23.66;100770.83;220965;1236;75532;-73
2023/05/31 17:43:10;;;;;;;19.00;3.30;;;;;;;22.57;25.55;100761.38;220957;1235;61333;-73
2023/05/31 17:48:02;;;;;;;5.70;2.20;;;;;;;22.18;27.16;100760.30;221073;1239;61244;-73
2023/05/31 17:52:53;;;;;;;9.20;2.10;;;;;;;21.78;27.55;100758.45;221064;1239;61276;-73
2023/05/31 17:57:45;;;;;;;14.90;2.50;;;;;;;21.36;28.23;100749.20;221194;1235;61716;-73
2023/05/31 18:02:36;;;;;;;5.60;2.00;;;;;;;20.91;28.09;100749.82;221261;1235;61326;-73
2023/05/31 18:07:28;;;;;;;14.40;3.70;;;;;;;20.49;28.59;100746.96;221192;1235;61876;-73
2023/05/31 18:12:21;;;;;;;4.90;1.80;;;;;;;20.12;30.05;100745.16;221247;1235;68065;-73
2023/05/31 18:17:12;;;;;;;4.60;1.90;;;;;;;19.77;31.00;100747.98;220976;1237;61345;-73
2023/05/31 18:22:05;;;;;;;4.10;1.80;;;;;;;19.40;31.01;100746.08;221026;1238;61367;-73
2023/05/31 18:27:18;;;;;;;2.70;1.60;;;;;;;19.07;31.19;100746.67;221039;1236;61894;-72
2023/05/31 18:32:10;;;;;;;6.10;1.80;;;;;;;18.78;31.92;100748.55;220868;1236;61237;-73
2023/05/31 18:37:01;;;;;;;3.10;1.60;;;;;;;18.52;32.75;100748.23;221105;1235;61256;-72
2023/05/31 18:41:53;;;;;;;9.60;2.60;;;;;;;18.25;33.10;100744.43;221041;1239;61816;-72
2023/05/31 18:46:44;;;;;;;11.50;2.10;;;;;;;17.99;32.84;100741.98;221046;1236;67675;-72
2023/05/31 18:51:36;;;;;;;3.80;1.90;;;;;;;17.72;33.54;100741.59;221052;1236;61143;-73
2023/05/31 18:56:28;;;;;;;7.20;2.10;;;;;;;17.45;33.77;100738.92;221082;1235;61251;-72
2023/05/31 19:01:22;;;;;;;3.10;2.10;;;;;;;17.20;33.93;100746.17;221034;1237;61374;-72
2023/05/31 19:06:13;;;;;;;3.20;1.70;;;;;;;16.96;34.02;100744.67;221032;1238;73709;-72
2023/05/31 19:11:05;;;;;;;4.30;2.50;;;;;;;16.76;34.62;100749.00;221050;1237;61416;-73
2023/05/31 19:15:56;;;;;;;5.20;1.90;;;;;;;16.55;35.10;100750.71;221060;1235;61563;-72
2023/05/31 19:20:48;;;;;;;1.90;1.70;;;;;;;16.29;34.71;100749.33;221081;1239;71894;-73
2023/05/31 19:25:40;;;;;;;3.50;1.90;;;;;;;16.05;35.22;100747.54;221042;1236;61377;-73
2023/05/31 19:30:32;;;;;;;6.20;2.80;;;;;;;15.82;35.51;100745.17;221019;1235;61239;-72
2023/05/31 19:35:24;;;;;;;6.00;2.90;;;;;;;15.59;36.37;100746.46;221108;1239;61339;-73
2023/05/31 19:40:15;;;;;;;5.70;3.20;;;;;;;15.42;36.72;100744.43;220996;1235;67068;-73
2023/05/31 19:45:08;;;;;;;7.80;2.30;;;;;;;15.29;37.66;100748.45;220999;1236;61899;-72
2023/05/31 19:49:59;;;;;;;6.30;2.40;;;;;;;15.15;37.66;100745.69;221005;1239;61275;-72
2023/05/31 19:54:51;;;;;;;5.60;2.40;;;;;;;14.95;38.66;100746.76;221030;1239;61364;-73
2023/05/31 19:59:42;;;;;;;7.70;2.50;;;;;;;14.72;38.25;100747.80;221026;1235;74464;-73
2023/05/31 20:04:34;;;;;;;6.20;2.40;;;;;;;14.58;38.76;100748.47;221032;1235;61352;-72
2023/05/31 20:09:26;;;;;;;6.50;3.10;;;;;;;14.45;38.99;100746.18;221124;1236;61206;-72
2023/05/31 20:14:17;;;;;;;6.00;2.50;;;;;;;14.34;39.21;100748.95;220915;1235;70959;-72
2023/05/31 20:19:10;;;;;;;5.80;2.80;;;;;;;14.20;39.60;100745.78;221057;1237;61313;-72
2023/05/31 20:24:02;;;;;;;14.40;3.50;;;;;;;14.07;39.62;100747.66;221005;1236;61261;-73
2023/05/31 20:28:53;;;;;;;5.20;2.80;;;;;;;13.88;40.00;100751.26;221116;1237;61240;-72
2023/05/31 20:33:45;;;;;;;5.70;2.40;;;;;;;13.75;40.23;100745.11;221051;1237;66870;-72
2023/05/31 20:38:36;;;;;;;9.80;3.50;;;;;;;13.64;40.70;100743.14;220959;1235;61245;-72
2023/05/31 20:43:28;;;;;;;4.50;2.70;;;;;;;13.48;40.87;100741.31;221095;1239;61200;-73
2023/05/31 20:48:20;;;;;;;9.80;3.20;;;;;;;13.29;41.50;100735.44;220997;1235;61195;-72
2023/05/31 20:53:13;;;;;;;7.50;3.30;;;;;;;13.13;42.43;100730.80;221098;1237;61278;-73
2023/05/31 20:58:05;;;;;;;9.00;3.40;;;;;;;13.02;43.37;100730.89;221178;1239;61457;-72
2023/05/31 21:02:57;;;;;;;10.00;3.60;;;;;;;12.89;43.28;100726.46;221035;1239;61230;-73
2023/05/31 21:07:49;;;;;;;6.20;3.40;;;;;;;12.78;44.01;100727.23;221064;1239;61300;-73
2023/05/31 21:12:41;;;;;;;6.20;3.30;;;;;;;12.69;43.70;100726.81;221070;1235;61263;-73
2023/05/31 21:17:33;;;;;;;6.00;3.70;;;;;;;12.58;44.35;100724.61;221059;1235;61330;-72
2023/05/31 21:22:25;;;;;;;10.80;4.00;;;;;;;12.44;44.31;100721.88;221021;1236;61352;-72
2023/05/31 21:27:16;;;;;;;6.20;3.50;;;;;;;12.32;44.62;100718.65;221110;1239;61211;-73
2023/05/31 21:32:08;;;;;;;4.60;3.60;;;;;;;12.17;45.09;100717.11;221007;1234;61247;-72
2023/05/31 21:36:59;;;;;;;7.10;3.30;;;;;;;12.10;45.26;100713.22;221038;1235;69207;-73
2023/05/31 21:41:52;;;;;;;6.50;3.30;;;;;;;11.97;45.57;100711.34;221047;1235;61370;-72
2023/05/31 21:46:43;;;;;;;9.70;3.60;;;;;;;11.85;45.74;100710.30;221119;1239;74489;-72
2023/05/31 21:51:36;;;;;;;8.30;3.40;;;;;;;11.72;46.14;100713.62;220927;1239;61307;-72
2023/05/31 21:56:27;;;;;;;7.60;4.30;;;;;;;11.67;46.78;100707.50;221102;1239;61383;-72
2023/05/31 22:01:19;;;;;;;9.40;4.50;;;;;;;11.61;46.81;100707.93;221066;1237;61170;-72
2023/05/31 22:06:11;;;;;;;7.70;4.70;;;;;;;11.55;47.50;100707.85;221071;1236;61354;-72
2023/05/31 22:11:02;;;;;;;8.50;4.80;;;;;;;11.43;47.85;100706.13;221033;1239;61408;-72
2023/05/31 22:15:55;;;;;;;7.00;5.00;;;;;;;11.35;48.67;100700.48;221080;1237;61237;-72
2023/05/31 22:20:53;;;;;;;6.20;4.00;;;;;;;11.32;48.93;100703.73;221072;1239;61237;-72
2023/05/31 22:25:44;;;;;;;;;;;;;;;11.22;49.03;100692.66;221212;1239;61256;-72
2023/05/31 22:30:36;;;;;;;6.50;4.20;;;;;;;11.16;49.32;100690.66;221017;1237;61253;-72
2023/05/31 22:35:27;;;;;;;5.70;3.90;;;;;;;11.07;49.10;100690.54;221152;1239;61278;-72